Time;durP1;ratioP1;P1;durP2;ratioP2;P2;SDS_P1;SDS_P2;PMS_P1;PMS_P2;Temp;Humidity;BMP_temperature;BMP_pressure;BME280_temperature;BME280_humidity;BME280_pressure;Samples;Min_cycle;Max_cycle;Signal;HPM_P1;HPM_P2
2022/06/19 00:00:12;;;;;;;5.18;1.13;;;;;;;14.91;100.00;100672.41;5027130;28;20422;-86
2022/06/19 00:02:45;;;;;;;4.60;1.10;;;;;;;14.69;100.00;100675.94;5021298;28;20461;-87
2022/06/19 00:05:18;;;;;;;5.47;1.10;;;;;;;14.69;100.00;100671.25;5020906;28;20768;-88
2022/06/19 00:07:52;;;;;;;4.30;0.93;;;;;;;14.67;100.00;100657.06;5022230;28;20430;-86
2022/06/19 00:10:26;;;;;;;3.30;1.10;;;;;;;14.70;100.00;100677.56;5023863;28;20437;-86
2022/06/19 00:13:00;;;;;;;5.93;1.30;;;;;;;14.59;100.00;100677.72;5020027;28;20434;-85
2022/06/19 00:15:34;;;;;;;6.82;1.30;;;;;;;14.67;100.00;100648.06;5020698;28;20430;-85
2022/06/19 00:18:08;;;;;;;9.55;1.60;;;;;;;14.44;100.00;100623.31;5018794;28;20432;-86
2022/06/19 00:20:36;;;;;;;4.68;1.00;;;;;;;14.38;100.00;100636.28;5006386;28;20420;-87
2022/06/19 00:23:04;;;;;;;9.55;1.50;;;;;;;14.38;100.00;100649.97;5015405;28;20431;-86
2022/06/19 00:25:39;;;;;;;4.70;1.20;;;;;;;14.29;100.00;100644.44;5018747;28;20435;-87
2022/06/19 00:28:12;;;;;;;6.63;1.38;;;;;;;14.23;100.00;100648.38;5021447;28;20427;-86
2022/06/19 00:30:41;;;;;;;5.40;1.50;;;;;;;14.25;100.00;100657.09;5020403;28;20439;-86
2022/06/19 00:33:09;;;;;;;5.38;1.25;;;;;;;14.18;100.00;100645.72;5022187;28;20438;-84
2022/06/19 00:35:43;;;;;;;5.63;1.23;;;;;;;14.22;100.00;100659.63;5024495;28;20441;-86
2022/06/19 00:38:16;;;;;;;4.60;1.05;;;;;;;14.08;100.00;100657.69;5024489;28;20442;-86
2022/06/19 00:40:45;;;;;;;5.68;1.30;;;;;;;14.04;100.00;100661.34;5026354;28;20950;-85
2022/06/19 00:43:18;;;;;;;4.22;1.20;;;;;;;13.94;100.00;100652.22;5026725;28;20434;-86
2022/06/19 00:45:50;;;;;;;6.05;1.35;;;;;;;13.95;100.00;100650.31;5023323;28;20427;-86
2022/06/19 00:48:29;;;;;;;7.38;1.65;;;;;;;13.90;100.00;100634.00;5026966;28;20446;-86
2022/06/19 00:51:05;;;;;;;6.03;1.30;;;;;;;14.03;100.00;100641.41;5028995;28;20435;-88
2022/06/19 00:53:45;;;;;;;5.43;1.40;;;;;;;13.97;100.00;100620.72;5027577;28;20452;-85
2022/06/19 00:56:21;;;;;;;4.28;1.38;;;;;;;13.78;100.00;100612.59;5028115;28;20422;-87
2022/06/19 00:58:52;;;;;;;7.32;1.50;;;;;;;13.73;100.00;100616.25;5026844;28;20805;-86
2022/06/19 01:01:28;;;;;;;5.97;1.35;;;;;;;13.61;100.00;100611.25;5022871;28;20435;-86
2022/06/19 01:04:07;;;;;;;6.22;1.60;;;;;;;13.61;100.00;100624.13;5028583;28;20434;-87
2022/06/19 01:06:40;;;;;;;4.75;1.30;;;;;;;13.64;100.00;100620.78;5023246;28;20431;-86
2022/06/19 01:09:13;;;;;;;5.70;1.48;;;;;;;13.56;100.00;100616.84;5025562;28;20435;-85
2022/06/19 01:11:43;;;;;;;8.27;1.73;;;;;;;13.56;100.00;100602.34;5027209;28;20446;-86
2022/06/19 01:14:19;;;;;;;8.00;1.50;;;;;;;13.41;100.00;100609.72;5027853;28;20419;-86
2022/06/19 01:16:47;;;;;;;6.43;1.45;;;;;;;13.38;100.00;100609.50;5027754;28;20434;-87
2022/06/19 01:19:22;;;;;;;6.68;1.67;;;;;;;13.43;100.00;100601.22;5027304;28;20418;-87
2022/06/19 01:22:06;;;;;;;8.17;1.80;;;;;;;13.38;100.00;100588.47;5010261;28;20488;-86
2022/06/19 01:25:09;;;;;;;7.55;1.77;;;;;;;13.39;100.00;100576.41;5025201;28;20867;-86
2022/06/19 01:30:36;;;;;;;9.35;1.90;;;;;;;13.26;100.00;100583.44;5009554;28;20428;-86
2022/06/19 01:33:13;;;;;;;8.07;1.65;;;;;;;13.23;100.00;100580.50;5008008;28;20429;-86
2022/06/19 01:35:50;;;;;;;6.25;1.40;;;;;;;13.10;100.00;100590.28;5025135;28;20419;-86
2022/06/19 01:38:21;;;;;;;7.03;1.70;;;;;;;13.00;100.00;100574.88;5026534;28;21112;-86
2022/06/19 01:40:53;;;;;;;7.53;1.70;;;;;;;12.99;100.00;100583.38;5028649;28;20438;-86
2022/06/19 01:43:23;;;;;;;6.03;1.57;;;;;;;13.21;100.00;100589.00;5027163;28;20465;-87
2022/06/19 01:45:53;;;;;;;11.13;1.95;;;;;;;13.02;100.00;100591.78;5033346;28;20431;-87
2022/06/19 01:48:31;;;;;;;11.05;2.20;;;;;;;13.21;100.00;100601.84;5017428;28;20419;-87
2022/06/19 01:51:01;;;;;;;9.07;1.88;;;;;;;13.06;100.00;100597.44;5042305;28;20422;-86
2022/06/19 01:53:36;;;;;;;9.02;1.95;;;;;;;13.24;100.00;100587.59;5020175;28;21185;-87
2022/06/19 01:56:11;;;;;;;8.77;1.42;;;;;;;13.21;100.00;100580.00;5026467;28;20903;-87
2022/06/19 01:58:51;;;;;;;9.68;1.88;;;;;;;13.09;100.00;100577.72;5027982;28;20427;-86
2022/06/19 02:01:24;;;;;;;9.70;1.90;;;;;;;13.06;100.00;100581.06;5022050;28;20430;-86
2022/06/19 02:04:00;;;;;;;9.20;1.83;;;;;;;13.06;100.00;100579.16;5027229;28;20446;-87
2022/06/19 02:06:41;;;;;;;6.45;1.60;;;;;;;12.93;100.00;100567.06;5028340;28;20426;-86
2022/06/19 02:09:16;;;;;;;6.68;1.50;;;;;;;13.02;100.00;100563.63;5027123;28;20438;-86
2022/06/19 02:11:50;;;;;;;11.07;1.98;;;;;;;12.89;100.00;100557.84;5027259;28;20415;-86
2022/06/19 02:14:25;;;;;;;10.45;1.98;;;;;;;12.82;100.00;100554.69;5027505;28;20422;-87
2022/06/19 02:17:04;;;;;;;10.10;1.90;;;;;;;12.85;100.00;100551.34;5027130;28;20438;-86
2022/06/19 02:19:33;;;;;;;7.97;1.70;;;;;;;12.55;100.00;100515.25;5027152;28;20434;-86
2022/06/19 02:22:11;;;;;;;9.68;1.77;;;;;;;13.02;100.00;100559.00;5026810;28;21189;-87
2022/06/19 02:24:45;;;;;;;10.02;1.92;;;;;;;12.94;100.00;100535.09;5026951;28;20427;-86
2022/06/19 02:27:15;;;;;;;6.70;1.63;;;;;;;13.01;100.00;100527.31;5025563;28;20454;-86
2022/06/19 02:29:49;;;;;;;7.82;1.65;;;;;;;12.85;100.00;100523.25;5031251;28;20431;-86
2022/06/19 02:32:27;;;;;;;10.68;2.05;;;;;;;12.83;100.00;100500.88;5025883;28;20954;-86
2022/06/19 02:35:01;;;;;;;10.93;2.00;;;;;;;12.73;100.00;100480.84;5026905;28;21006;-86
2022/06/19 02:37:33;;;;;;;7.23;1.90;;;;;;;12.66;100.00;100488.56;5030735;28;20420;-87
2022/06/19 02:40:26;;;;;;;6.22;1.60;;;;;;;12.63;100.00;100482.91;5027538;28;20426;-86
2022/06/19 02:42:54;;;;;;;8.93;1.75;;;;;;;12.58;100.00;100478.34;5024133;28;20461;-86
2022/06/19 02:45:26;;;;;;;8.77;1.90;;;;;;;12.57;100.00;100468.56;5026229;28;20431;-86
2022/06/19 02:48:00;;;;;;;7.90;1.80;;;;;;;12.64;100.00;100432.69;5027423;28;20424;-86
2022/06/19 02:50:31;;;;;;;8.63;1.60;;;;;;;12.55;100.00;100443.44;5026072;28;20419;-86
2022/06/19 02:53:04;;;;;;;9.85;1.88;;;;;;;12.58;100.00;100432.75;5024481;28;20430;-87
2022/06/19 02:55:33;;;;;;;10.52;1.92;;;;;;;12.67;100.00;100423.88;5026257;28;21025;-86
2022/06/19 02:58:01;;;;;;;9.52;2.28;;;;;;;12.60;100.00;100427.00;5026579;28;20430;-86
2022/06/19 03:00:36;;;;;;;12.15;1.95;;;;;;;12.56;100.00;100418.59;5026042;28;21291;-86
2022/06/19 03:03:14;;;;;;;7.32;1.63;;;;;;;12.54;100.00;100392.69;5026251;28;20433;-86
2022/06/19 03:05:47;;;;;;;5.57;1.85;;;;;;;12.61;100.00;100376.75;5025692;28;20431;-85
2022/06/19 03:08:21;;;;;;;8.63;1.88;;;;;;;12.73;100.00;100354.41;5026861;28;20427;-85
2022/06/19 03:10:54;;;;;;;8.70;1.95;;;;;;;12.90;100.00;100353.81;5007730;28;20904;-87
2022/06/19 03:13:27;;;;;;;8.77;2.15;;;;;;;12.97;100.00;100356.13;5007669;28;20432;-87
2022/06/19 03:16:03;;;;;;;12.15;2.20;;;;;;;12.74;100.00;100324.06;5007832;28;20432;-87
2022/06/19 03:18:31;;;;;;;7.43;1.85;;;;;;;12.89;100.00;100344.81;5023760;28;20411;-86
2022/06/19 03:21:05;;;;;;;9.67;1.77;;;;;;;12.69;100.00;100337.00;5021616;28;20423;-87
2022/06/19 03:23:38;;;;;;;10.38;2.25;;;;;;;12.88;100.00;100342.38;5027103;28;20434;-87
2022/06/19 03:26:11;;;;;;;8.90;1.90;;;;;;;12.85;100.00;100327.41;5025990;28;20433;-87
2022/06/19 03:28:44;;;;;;;11.10;1.88;;;;;;;12.74;100.00;100329.53;5027387;28;20435;-86
2022/06/19 03:31:22;;;;;;;10.48;2.00;;;;;;;12.71;100.00;100330.13;5022478;28;20430;-86
2022/06/19 03:33:55;;;;;;;11.93;2.10;;;;;;;12.76;100.00;100345.63;5025383;28;20426;-86
2022/06/19 03:36:28;;;;;;;11.60;2.33;;;;;;;12.82;100.00;100349.88;5026149;28;20427;-88
2022/06/19 03:39:01;;;;;;;10.38;2.08;;;;;;;12.82;100.00;100363.53;5026149;28;20427;-88
2022/06/19 03:41:34;;;;;;;11.53;1.90;;;;;;;12.82;100.00;100368.97;5026372;28;20418;-86
2022/06/19 03:44:08;;;;;;;10.00;2.00;;;;;;;12.76;100.00;100386.59;5025752;28;20510;-85
2022/06/19 03:46:42;;;;;;;10.65;2.17;;;;;;;12.90;100.00;100397.53;5022131;28;20491;-85
2022/06/19 03:49:10;;;;;;;10.10;2.20;;;;;;;12.91;100.00;100413.59;5025811;28;21268;-88
2022/06/19 03:51:44;;;;;;;10.95;1.95;;;;;;;12.98;100.00;100439.69;5025524;28;20429;-87
2022/06/19 03:54:12;;;;;;;7.78;1.88;;;;;;;12.93;100.00;100448.81;5025707;28;20454;-86
2022/06/19 03:56:40;;;;;;;10.20;1.73;;;;;;;12.73;100.00;100461.72;5023987;28;20438;-86
2022/06/19 03:59:14;;;;;;;9.57;1.90;;;;;;;12.80;100.00;100477.72;5024964;28;20772;-86
2022/06/19 04:01:49;;;;;;;11.18;2.17;;;;;;;12.84;100.00;100461.53;5025797;28;20427;-85
2022/06/19 04:04:22;;;;;;;9.52;2.00;;;;;;;12.88;100.00;100462.56;5027546;28;20423;-90
2022/06/19 04:06:55;;;;;;;8.88;1.98;;;;;;;12.97;100.00;100463.47;5026134;28;20435;-87
2022/06/19 04:09:28;;;;;;;9.73;2.08;;;;;;;12.94;100.00;100455.91;5007879;28;20428;-87
2022/06/19 04:11:56;;;;;;;9.52;1.75;;;;;;;13.03;100.00;100458.72;5011181;28;20421;-84
2022/06/19 04:14:24;;;;;;;7.85;1.98;;;;;;;13.06;100.00;100461.69;5010032;28;20885;-87
2022/06/19 04:16:59;;;;;;;8.88;1.83;;;;;;;13.18;100.00;100444.78;5009463;28;20447;-83
2022/06/19 04:19:32;;;;;;;7.23;1.73;;;;;;;13.20;100.00;100420.72;5031615;28;20430;-85
2022/06/19 04:22:05;;;;;;;9.63;2.20;;;;;;;13.29;100.00;100429.00;5025830;28;20435;-88
2022/06/19 04:24:39;;;;;;;11.50;1.92;;;;;;;13.31;100.00;100407.63;5029043;28;20426;-85
2022/06/19 04:27:12;;;;;;;7.35;1.52;;;;;;;13.34;100.00;100400.75;5029978;28;20433;-87
2022/06/19 04:29:40;;;;;;;7.13;1.60;;;;;;;13.34;100.00;100406.22;5049371;28;20420;-88
2022/06/19 04:32:10;;;;;;;6.93;1.60;;;;;;;13.36;100.00;100393.09;5031168;28;20798;-84
2022/06/19 04:34:38;;;;;;;7.17;1.70;;;;;;;13.39;100.00;100390.53;5027265;28;20424;-87
2022/06/19 04:37:11;;;;;;;8.48;1.70;;;;;;;13.38;100.00;100385.38;5026904;28;20446;-86
2022/06/19 04:39:44;;;;;;;8.73;1.92;;;;;;;13.39;100.00;100392.47;5031167;28;20461;-88
2022/06/19 04:42:17;;;;;;;7.95;1.63;;;;;;;13.43;100.00;100388.81;5018613;28;20438;-87
2022/06/19 04:44:45;;;;;;;8.95;1.90;;;;;;;13.47;100.00;100374.56;5029595;28;20427;-87
2022/06/19 04:47:20;;;;;;;7.95;1.70;;;;;;;13.46;100.00;100371.00;5031016;28;20446;-87
2022/06/19 04:49:53;;;;;;;6.90;1.67;;;;;;;13.47;100.00;100356.22;5022842;28;20424;-87
2022/06/19 04:52:21;;;;;;;6.80;1.80;;;;;;;13.46;100.00;100346.38;5022095;28;20439;-86
2022/06/19 04:54:55;;;;;;;7.20;1.60;;;;;;;13.58;100.00;100343.13;5010045;28;20433;-88
2022/06/19 04:57:28;;;;;;;7.60;1.90;;;;;;;13.40;100.00;100310.16;5010564;28;20428;-89
2022/06/19 05:00:01;;;;;;;10.23;1.90;;;;;;;13.59;100.00;100334.63;5009011;28;20444;-87
2022/06/19 05:02:36;;;;;;;9.27;1.83;;;;;;;13.68;100.00;100334.69;5008710;28;21324;-88
2022/06/19 05:05:15;;;;;;;10.93;1.73;;;;;;;13.72;100.00;100321.22;5009090;28;20435;-88
2022/06/19 05:07:48;;;;;;;8.00;1.55;;;;;;;13.74;100.00;100303.38;5008191;28;20428;-86
2022/06/19 05:10:17;;;;;;;9.40;2.20;;;;;;;13.85;100.00;100300.38;5014232;28;20502;-86
2022/06/19 05:12:55;;;;;;;12.25;1.92;;;;;;;14.02;100.00;100266.88;5029624;28;20415;-89
2022/06/19 05:15:28;;;;;;;9.13;1.80;;;;;;;14.24;100.00;100283.25;5026236;28;21292;-87
2022/06/19 05:18:03;;;;;;;11.10;1.80;;;;;;;14.48;100.00;100282.06;5023271;28;20423;-89
2022/06/19 05:20:37;;;;;;;11.77;1.87;;;;;;;15.38;100.00;100253.41;5027050;28;20487;-87
2022/06/19 05:23:11;;;;;;;12.68;2.20;;;;;;;14.73;100.00;100214.81;5028342;28;21038;-86
2022/06/19 05:25:44;;;;;;;11.82;2.35;;;;;;;14.83;100.00;100268.53;5027427;28;20446;-88
2022/06/19 05:28:17;;;;;;;10.43;2.00;;;;;;;14.58;100.00;100253.56;5028392;28;20427;-89
2022/06/19 05:30:50;;;;;;;11.07;1.90;;;;;;;14.30;100.00;100248.31;5029171;28;20922;-88
2022/06/19 05:33:25;;;;;;;9.03;1.80;;;;;;;14.45;100.00;100238.88;5028383;28;20427;-85
2022/06/19 05:35:53;;;;;;;12.65;2.05;;;;;;;15.02;100.00;100237.28;5028476;28;20423;-86
2022/06/19 05:38:28;;;;;;;9.15;2.22;;;;;;;15.94;100.00;100230.78;5023059;28;20423;-87
2022/06/19 05:41:02;;;;;;;5.67;1.50;;;;;;;15.51;100.00;100261.78;5016898;28;20438;-88
2022/06/19 05:43:34;;;;;;;10.57;2.13;;;;;;;16.33;100.00;100284.59;5019374;28;20445;-87
2022/06/19 05:46:12;;;;;;;10.02;2.20;;;;;;;15.96;100.00;100297.13;5023190;28;20431;-88
2022/06/19 05:48:42;;;;;;;9.05;1.88;;;;;;;16.17;100.00;100381.53;5025379;28;20426;-86
2022/06/19 05:51:17;;;;;;;8.25;2.20;;;;;;;15.59;100.00;100355.06;5021375;28;20430;-88
2022/06/19 05:53:53;;;;;;;8.60;2.00;;;;;;;15.40;100.00;100324.41;5022335;28;21089;-89
2022/06/19 05:56:27;;;;;;;7.80;1.75;;;;;;;15.63;100.00;100325.03;5021211;28;20415;-89
2022/06/19 05:59:01;;;;;;;8.90;2.00;;;;;;;15.43;100.00;100271.66;5024159;28;20423;-89
2022/06/19 06:01:34;;;;;;;7.90;1.70;;;;;;;15.76;100.00;100334.25;5023278;28;20427;-88
2022/06/19 06:04:09;;;;;;;10.00;1.85;;;;;;;15.84;100.00;100314.25;5018949;28;20435;-87
2022/06/19 06:06:42;;;;;;;8.50;1.88;;;;;;;15.98;100.00;100300.38;5022644;28;21326;-88
2022/06/19 06:09:15;;;;;;;9.48;1.98;;;;;;;15.95;100.00;100312.78;5023330;28;20433;-83
2022/06/19 06:11:48;;;;;;;9.65;2.00;;;;;;;15.80;100.00;100313.31;5025590;28;20432;-87
2022/06/19 06:14:22;;;;;;;10.47;1.90;;;;;;;15.92;100.00;100297.00;5025310;28;21293;-89
2022/06/19 06:16:55;;;;;;;10.55;2.00;;;;;;;15.84;100.00;100299.72;5019247;28;20431;-87
2022/06/19 06:19:29;;;;;;;7.75;2.25;;;;;;;15.97;100.00;100302.28;5028477;28;20419;-86
2022/06/19 06:22:04;;;;;;;7.30;1.88;;;;;;;15.81;100.00;100345.91;5026868;28;20430;-88
2022/06/19 06:24:37;;;;;;;10.48;2.15;;;;;;;15.80;100.00;100379.94;5023995;28;20430;-87
2022/06/19 06:27:06;;;;;;;7.82;2.20;;;;;;;15.56;100.00;100383.13;5018684;28;20448;-87
2022/06/19 06:29:39;;;;;;;9.95;2.22;;;;;;;15.85;100.00;100400.13;5022022;28;20435;-87
2022/06/19 06:32:12;;;;;;;8.75;1.90;;;;;;;15.54;100.00;100414.75;5028209;28;20430;-86
2022/06/19 06:34:47;;;;;;;7.43;1.90;;;;;;;15.32;100.00;100396.47;5024172;28;20445;-87
2022/06/19 06:37:20;;;;;;;7.78;1.90;;;;;;;15.24;100.00;100376.94;5024030;28;20887;-88
2022/06/19 06:39:54;;;;;;;7.57;1.90;;;;;;;15.21;100.00;100352.09;5017681;28;20440;-87
2022/06/19 06:42:22;;;;;;;7.63;2.20;;;;;;;15.33;100.00;100355.03;5024156;28;20415;-86
2022/06/19 06:44:50;;;;;;;8.70;2.20;;;;;;;15.12;100.00;100355.63;5024707;28;20433;-87
2022/06/19 06:47:23;;;;;;;11.98;2.30;;;;;;;15.26;100.00;100340.97;5023039;28;20940;-84
2022/06/19 06:49:58;;;;;;;10.18;2.45;;;;;;;15.22;100.00;100321.63;5022332;28;20935;-87
2022/06/19 06:52:26;;;;;;;6.45;2.08;;;;;;;15.32;100.00;100328.72;5023217;28;20437;-87
2022/06/19 06:54:59;;;;;;;9.82;2.40;;;;;;;15.30;100.00;100320.84;5018820;28;20432;-85
2022/06/19 06:57:32;;;;;;;5.60;1.83;;;;;;;15.14;100.00;100301.28;5022599;28;20426;-84
2022/06/19 07:00:00;;;;;;;8.85;2.20;;;;;;;15.27;100.00;100299.56;5022182;28;20461;-83
2022/06/19 07:02:34;;;;;;;11.13;2.40;;;;;;;15.44;100.00;100284.25;5021788;28;20431;-86
2022/06/19 07:05:04;;;;;;;9.98;2.60;;;;;;;15.44;100.00;100287.78;5019913;28;20442;-84
2022/06/19 07:07:32;;;;;;;8.70;2.37;;;;;;;15.38;100.00;100285.53;5022048;28;20439;-87
2022/06/19 07:10:06;;;;;;;8.93;2.42;;;;;;;15.42;100.00;100283.75;5023427;28;20434;-86
2022/06/19 07:12:39;;;;;;;9.85;2.28;;;;;;;15.48;100.00;100291.50;5019207;28;20437;-87
2022/06/19 07:15:13;;;;;;;10.93;2.53;;;;;;;15.39;100.00;100276.97;5021979;28;20434;-85
2022/06/19 07:17:47;;;;;;;8.17;2.30;;;;;;;15.46;100.00;100280.03;5017937;28;20435;-89
2022/06/19 07:20:17;;;;;;;8.52;2.10;;;;;;;15.26;100.00;100262.28;5021743;28;20499;-88
2022/06/19 07:22:50;;;;;;;6.85;1.90;;;;;;;15.32;100.00;100243.75;5022675;28;20439;-89
2022/06/19 07:25:23;;;;;;;7.33;1.87;;;;;;;15.61;100.00;100242.28;5024770;28;20437;-86
2022/06/19 07:27:51;;;;;;;6.13;1.70;;;;;;;15.61;100.00;100253.25;5017302;28;20432;-89
2022/06/19 07:30:26;;;;;;;8.40;1.90;;;;;;;15.88;100.00;100254.88;5023240;28;20435;-84
2022/06/19 07:32:59;;;;;;;4.78;1.58;;;;;;;15.65;100.00;100246.78;5020364;28;20442;-89
2022/06/19 07:35:28;;;;;;;7.05;2.00;;;;;;;15.70;100.00;100226.63;5017805;28;21128;-88
2022/06/19 07:38:01;;;;;;;7.32;2.00;;;;;;;15.96;100.00;100206.56;5019940;28;20449;-88
2022/06/19 07:40:35;;;;;;;8.93;1.57;;;;;;;16.12;100.00;100206.84;5014735;28;20460;-88
2022/06/19 07:43:09;;;;;;;4.75;1.40;;;;;;;16.05;100.00;100203.81;5018327;28;20439;-85
2022/06/19 07:45:42;;;;;;;7.90;2.10;;;;;;;16.21;100.00;100196.59;5019993;28;20436;-88
2022/06/19 07:51:02;;;;;;;8.02;1.70;;;;;;;16.67;100.00;100197.66;5025790;28;20434;-85
2022/06/19 07:53:35;;;;;;;6.00;1.60;;;;;;;17.17;100.00;100185.03;5021052;28;20458;-85
2022/06/19 07:56:09;;;;;;;5.93;1.50;;;;;;;17.20;100.00;100193.78;5025587;28;20425;-88
2022/06/19 07:58:37;;;;;;;6.10;1.70;;;;;;;16.84;100.00;100196.75;5024833;28;20427;-87
2022/06/19 08:01:06;;;;;;;5.93;1.70;;;;;;;17.10;100.00;100197.72;5020321;28;20427;-86
2022/06/19 08:03:39;;;;;;;7.45;1.88;;;;;;;17.46;100.00;100199.84;5024666;28;20431;-87
2022/06/19 08:06:09;;;;;;;7.28;1.90;;;;;;;17.80;100.00;100192.38;5024058;28;20438;-87
2022/06/19 08:08:42;;;;;;;5.10;1.73;;;;;;;17.87;100.00;100197.31;5023611;28;21188;-86
2022/06/19 08:11:15;;;;;;;5.77;1.60;;;;;;;17.75;100.00;100198.09;5027657;28;20851;-89
2022/06/19 08:13:48;;;;;;;9.07;2.00;;;;;;;17.64;100.00;100192.22;5020849;28;20434;-87
2022/06/19 08:16:22;;;;;;;7.07;2.00;;;;;;;17.78;100.00;100191.91;5034556;28;20434;-85
2022/06/19 08:18:55;;;;;;;6.75;2.00;;;;;;;17.82;100.00;100192.81;5022491;28;20502;-86
2022/06/19 08:21:29;;;;;;;7.15;1.75;;;;;;;17.87;100.00;100180.81;5023770;28;20435;-84
2022/06/19 08:23:57;;;;;;;5.78;1.85;;;;;;;17.56;100.00;100164.78;5019689;28;20439;-89
2022/06/19 08:26:31;;;;;;;6.45;1.90;;;;;;;17.40;100.00;100181.94;5029986;28;20425;-86
2022/06/19 08:29:04;;;;;;;6.95;2.13;;;;;;;17.65;100.00;100174.56;5039079;28;20431;-88
2022/06/19 08:31:37;;;;;;;8.50;2.15;;;;;;;17.87;100.00;100188.25;5018150;28;20910;-83
2022/06/19 08:34:10;;;;;;;6.78;1.98;;;;;;;17.76;100.00;100194.19;5027910;28;20435;-85
2022/06/19 08:36:45;;;;;;;7.53;2.20;;;;;;;17.53;100.00;100201.25;5014168;28;20759;-85
2022/06/19 08:39:17;;;;;;;6.63;1.95;;;;;;;17.60;100.00;100204.25;5021709;28;20450;-85
2022/06/19 08:42:21;;;;;;;9.63;2.28;;;;;;;17.89;100.00;100214.28;5020093;28;20447;-83
2022/06/19 08:45:09;;;;;;;6.72;2.15;;;;;;;18.06;100.00;100199.53;5020117;28;20432;-82
2022/06/19 08:47:58;;;;;;;5.88;2.05;;;;;;;18.16;100.00;100212.88;5020951;28;21341;-81
2022/06/19 08:50:35;;;;;;;5.88;2.00;;;;;;;18.40;100.00;100227.81;5021153;28;20477;-82
2022/06/19 08:53:26;;;;;;;7.55;2.00;;;;;;;18.76;100.00;100244.69;5018892;28;20434;-84
2022/06/19 08:56:06;;;;;;;5.43;1.70;;;;;;;18.62;100.00;100254.09;5019093;28;20457;-84
2022/06/19 08:58:46;;;;;;;6.05;1.73;;;;;;;18.69;100.00;100261.78;5038969;28;20432;-83
2022/06/19 09:01:21;;;;;;;6.05;1.63;;;;;;;18.84;100.00;100269.34;5028415;28;21129;-84
2022/06/19 09:07:06;;;;;;;5.68;1.70;;;;;;;18.96;100.00;100281.53;5025001;28;20428;-84
2022/06/19 09:09:58;;;;;;;5.95;1.70;;;;;;;18.84;100.00;100280.38;5019294;28;20439;-83
2022/06/19 09:12:51;;;;;;;5.23;1.40;;;;;;;18.80;100.00;100295.22;5020180;28;20432;-84
2022/06/19 09:15:32;;;;;;;3.80;1.20;;;;;;;18.76;100.00;100294.28;5013303;28;20429;-84
2022/06/19 09:18:07;;;;;;;8.02;1.40;;;;;;;18.72;100.00;100291.41;5016426;28;20435;-83
2022/06/19 09:20:43;;;;;;;4.53;1.20;;;;;;;18.66;95.00;100293.59;5002689;28;20435;-84
2022/06/19 09:23:36;;;;;;;4.22;1.30;;;;;;;18.90;100.00;100278.22;5015147;28;21279;-81
2022/06/19 09:26:15;;;;;;;4.20;1.20;;;;;;;18.93;94.16;100273.97;4996080;28;20437;-83
2022/06/19 09:28:53;;;;;;;5.30;1.02;;;;;;;18.99;84.94;100281.66;5002033;28;20434;-83
2022/06/19 09:31:32;;;;;;;5.33;1.00;;;;;;;19.13;79.04;100286.81;4997739;28;20419;-83
2022/06/19 09:34:13;;;;;;;3.75;1.05;;;;;;;19.27;90.44;100267.13;5000061;28;20450;-83
2022/06/19 09:36:52;;;;;;;4.13;1.20;;;;;;;19.39;85.65;100285.63;5002694;28;20435;-83
2022/06/19 09:39:29;;;;;;;5.00;1.10;;;;;;;19.27;83.95;100283.69;5004011;28;20430;-82
2022/06/19 09:42:07;;;;;;;3.57;1.07;;;;;;;19.14;70.46;100279.34;5001714;28;20411;-84
2022/06/19 09:44:41;;;;;;;4.63;1.10;;;;;;;18.89;73.70;100281.34;5001637;28;20458;-82
2022/06/19 09:47:19;;;;;;;2.50;0.95;;;;;;;18.94;83.16;100283.88;4999502;28;20427;-82
2022/06/19 09:49:58;;;;;;;2.85;0.95;;;;;;;18.99;74.20;100259.59;4998519;28;21081;-83
2022/06/19 09:52:38;;;;;;;3.92;1.10;;;;;;;19.28;70.83;100260.47;4996449;28;20435;-82
2022/06/19 09:55:17;;;;;;;4.05;1.00;;;;;;;19.28;72.03;100274.25;5000450;28;20446;-83
2022/06/19 09:57:56;;;;;;;3.80;1.00;;;;;;;19.46;66.79;100268.44;4997086;28;20430;-83
2022/06/19 10:00:34;;;;;;;4.22;1.13;;;;;;;19.79;77.06;100272.91;4995152;28;20462;-82
2022/06/19 10:03:11;;;;;;;3.83;1.08;;;;;;;20.27;66.45;100287.63;4992007;28;20442;-81
2022/06/19 10:05:48;;;;;;;3.97;1.15;;;;;;;20.36;68.15;100306.81;5002725;28;20434;-84
2022/06/19 10:08:26;;;;;;;3.10;1.02;;;;;;;20.16;68.36;100319.72;5006604;28;20426;-82
2022/06/19 10:10:59;;;;;;;4.97;1.27;;;;;;;20.37;65.66;100339.63;5002257;28;20435;-83
2022/06/19 10:13:38;;;;;;;4.30;1.10;;;;;;;20.12;66.61;100343.66;5002727;28;21008;-83
2022/06/19 10:16:20;;;;;;;2.47;1.00;;;;;;;19.68;70.82;100336.13;4999263;28;20435;-84
2022/06/19 10:18:55;;;;;;;3.95;0.93;;;;;;;19.58;75.36;100344.88;4999119;28;20435;-83
2022/06/19 10:24:29;;;;;;;3.80;1.20;;;;;;;19.72;79.20;100370.16;5000119;28;20907;-81
2022/06/19 10:27:03;;;;;;;6.30;1.25;;;;;;;19.44;82.33;100361.81;5000633;28;20911;-82
2022/06/19 10:29:55;;;;;;;6.03;1.20;;;;;;;19.16;84.21;100357.03;4999061;28;20430;-84
2022/06/19 10:32:43;;;;;;;4.50;1.20;;;;;;;19.06;89.35;100355.56;4993234;28;20438;-82
2022/06/19 10:35:23;;;;;;;5.60;1.13;;;;;;;18.97;98.23;100355.66;4998642;28;20464;-82
2022/06/19 10:38:14;;;;;;;4.90;1.40;;;;;;;19.11;99.86;100329.69;4999539;28;20443;-84
2022/06/19 10:40:54;;;;;;;4.35;1.27;;;;;;;18.88;96.75;100332.09;4996092;28;20466;-82
2022/06/19 10:43:40;;;;;;;6.43;1.50;;;;;;;19.19;92.42;100317.72;5000966;28;20435;-82
2022/06/19 10:46:16;;;;;;;4.10;1.20;;;;;;;19.57;93.65;100310.16;4999842;28;20446;-82
2022/06/19 10:49:02;;;;;;;4.63;1.35;;;;;;;19.77;88.76;100339.53;4996984;28;20424;-81
2022/06/19 10:51:50;;;;;;;6.25;1.27;;;;;;;20.09;90.85;100339.66;5001207;28;20430;-82
2022/06/19 10:54:52;;;;;;;5.78;1.30;;;;;;;19.65;88.42;100325.75;5000243;28;20442;-81
2022/06/19 10:57:36;;;;;;;5.43;1.13;;;;;;;19.39;84.27;100340.81;4966432;28;20438;-83
2022/06/19 11:00:06;;;;;;;4.40;1.20;;;;;;;19.49;92.68;100348.59;5000877;28;20435;-82
2022/06/19 11:05:35;;;;;;;5.97;1.60;;;;;;;19.15;100.00;100371.97;4998799;28;20450;-82
2022/06/19 11:08:04;;;;;;;8.07;2.30;;;;;;;19.02;100.00;100373.94;4999612;28;20438;-81
2022/06/19 11:10:48;;;;;;;6.00;1.70;;;;;;;18.46;100.00;100369.72;4998211;28;20453;-81
2022/06/19 11:13:21;;;;;;;6.13;1.63;;;;;;;18.28;100.00;100373.78;4997835;28;20431;-84
2022/06/19 11:16:01;;;;;;;6.55;1.90;;;;;;;18.16;100.00;100349.75;5001874;28;20471;-84
2022/06/19 11:18:45;;;;;;;6.95;1.80;;;;;;;18.13;100.00;100344.94;5014362;28;20461;-81
2022/06/19 11:21:22;;;;;;;6.82;1.83;;;;;;;18.16;100.00;100360.75;5015089;28;20438;-80
2022/06/19 11:23:58;;;;;;;8.45;1.77;;;;;;;17.90;100.00;100349.97;5016908;28;20444;-83
2022/06/19 11:26:38;;;;;;;6.78;1.60;;;;;;;17.70;100.00;100368.13;5015277;28;20424;-84
2022/06/19 11:29:20;;;;;;;9.77;2.25;;;;;;;17.72;100.00;100374.91;5017811;28;20442;-85
2022/06/19 11:32:13;;;;;;;7.23;1.93;;;;;;;17.62;100.00;100378.88;5017169;28;20450;-83
2022/06/19 11:34:59;;;;;;;7.28;2.20;;;;;;;17.84;100.00;100366.72;5019029;28;20441;-83
2022/06/19 11:37:36;;;;;;;8.95;1.95;;;;;;;17.76;100.00;100364.84;5011026;28;20459;-81
2022/06/19 11:40:14;;;;;;;6.25;1.70;;;;;;;17.48;100.00;100376.38;5018421;28;20427;-83
2022/06/19 11:42:50;;;;;;;7.82;1.90;;;;;;;17.58;100.00;100379.84;5020917;28;20425;-84
2022/06/19 11:45:28;;;;;;;6.22;1.85;;;;;;;17.51;100.00;100364.69;4988351;28;20431;-82
2022/06/19 11:48:05;;;;;;;7.28;2.03;;;;;;;17.66;100.00;100377.06;4995375;28;20447;-83
2022/06/19 11:50:45;;;;;;;8.80;1.77;;;;;;;17.53;100.00;100416.63;4994722;28;20497;-82
2022/06/19 11:53:18;;;;;;;9.68;2.20;;;;;;;17.27;100.00;100417.56;5002645;28;20910;-83
2022/06/19 11:55:48;;;;;;;7.23;1.90;;;;;;;17.24;100.00;100418.25;4996086;28;20435;-83
2022/06/19 11:58:28;;;;;;;7.67;2.20;;;;;;;17.19;100.00;100412.94;4994882;28;20426;-84
2022/06/19 12:01:07;;;;;;;7.88;1.92;;;;;;;17.42;100.00;100405.19;4992395;28;20430;-82
2022/06/19 12:03:47;;;;;;;6.93;1.92;;;;;;;17.57;100.00;100394.78;4996964;28;20434;-83
2022/06/19 12:06:40;;;;;;;8.88;2.30;;;;;;;17.43;100.00;100378.50;5001222;28;20426;-84